createdAt,value
2023-05-21T00:00:49.256Z,986.27
2023-05-21T00:01:49.261Z,986.25
2023-05-21T00:02:49.455Z,986.25
2023-05-21T00:03:49.438Z,986.23
2023-05-21T00:04:49.217Z,986.21
2023-05-21T00:05:49.280Z,986.21
2023-05-21T00:06:49.187Z,986.21
2023-05-21T00:07:49.158Z,986.17
2023-05-21T00:08:47.236Z,986.17
2023-05-21T00:09:49.143Z,986.15
2023-05-21T00:10:49.148Z,986.15
2023-05-21T00:11:49.124Z,986.11
2023-05-21T00:12:49.101Z,986.13
2023-05-21T00:13:49.090Z,986.11
2023-05-21T00:14:49.085Z,986.11
2023-05-21T00:15:49.067Z,986.11
2023-05-21T00:16:49.127Z,986.11
2023-05-21T00:17:49.102Z,986.09
2023-05-21T00:18:49.114Z,986.07
2023-05-21T00:19:49.023Z,986.09
2023-05-21T00:20:48.987Z,986.07
2023-05-21T00:21:49.009Z,986.07
2023-05-21T00:22:48.963Z,986.07
2023-05-21T00:23:48.974Z,986.05
2023-05-21T00:24:48.947Z,986.03
2023-05-21T00:25:48.931Z,986.01
2023-05-21T00:26:48.915Z,986.01
2023-05-21T00:27:48.915Z,986.01
2023-05-21T00:28:48.879Z,986.01
2023-05-21T00:29:48.877Z,986.01
2023-05-21T00:30:48.859Z,985.99
2023-05-21T00:31:49.014Z,985.97
2023-05-21T00:32:48.828Z,985.99
2023-05-21T00:33:48.836Z,985.97
2023-05-21T00:34:48.815Z,985.99
2023-05-21T00:35:48.781Z,986.01
2023-05-21T00:36:48.788Z,985.99
2023-05-21T00:37:48.785Z,985.99
2023-05-21T00:38:48.788Z,986.03
2023-05-21T00:39:48.728Z,985.99
2023-05-21T00:40:48.726Z,985.99
2023-05-21T00:41:48.757Z,985.99
2023-05-21T00:42:48.680Z,985.95
2023-05-21T00:43:48.733Z,985.97
2023-05-21T00:44:48.677Z,985.94
2023-05-21T00:45:48.768Z,985.94
2023-05-21T00:46:48.655Z,985.90
2023-05-21T00:47:48.699Z,985.90
2023-05-21T00:48:48.611Z,985.88
2023-05-21T00:49:48.601Z,985.88
2023-05-21T00:50:48.577Z,985.86
2023-05-21T00:51:48.568Z,985.84
2023-05-21T00:52:48.568Z,985.84
2023-05-21T00:53:48.553Z,985.80
2023-05-21T00:54:48.536Z,985.82
2023-05-21T00:55:48.502Z,985.82
2023-05-21T00:56:48.482Z,985.80
2023-05-21T00:57:48.491Z,985.78
2023-05-21T00:58:48.461Z,985.78
2023-05-21T00:59:48.456Z,985.78
2023-05-21T01:00:48.452Z,985.78
2023-05-21T01:01:48.501Z,985.76
2023-05-21T01:02:48.488Z,985.76
2023-05-21T01:03:48.514Z,985.78
2023-05-21T01:04:48.401Z,985.76
2023-05-21T01:05:48.369Z,985.78
2023-05-21T01:06:48.368Z,985.78
2023-05-21T01:07:48.369Z,985.76
2023-05-21T01:08:48.325Z,985.76
2023-05-21T01:09:48.315Z,985.74
2023-05-21T01:10:48.293Z,985.74
2023-05-21T01:11:48.301Z,985.72
2023-05-21T01:12:48.253Z,985.72
2023-05-21T01:13:48.262Z,985.70
2023-05-21T01:14:48.241Z,985.66
2023-05-21T01:15:48.223Z,985.66
2023-05-21T01:16:48.353Z,985.62
2023-05-21T01:17:48.273Z,985.62
2023-05-21T01:18:48.264Z,985.60
2023-05-21T01:19:48.257Z,985.58
2023-05-21T01:20:48.210Z,985.58
2023-05-21T01:21:48.157Z,985.60
2023-05-21T01:22:48.136Z,985.58
2023-05-21T01:23:48.121Z,985.56
2023-05-21T01:24:48.116Z,985.56
2023-05-21T01:25:48.608Z,985.56
2023-05-21T01:26:48.089Z,985.56
2023-05-21T01:27:48.064Z,985.58
2023-05-21T01:28:48.072Z,985.60
2023-05-21T01:29:48.041Z,985.56
2023-05-21T01:30:46.395Z,985.54
2023-05-21T01:31:48.027Z,985.56
2023-05-21T01:32:48.124Z,985.56
2023-05-21T01:33:48.055Z,985.56
2023-05-21T01:34:47.964Z,985.56
2023-05-21T01:35:47.971Z,985.54
2023-05-21T01:36:47.937Z,985.54
2023-05-21T01:37:47.940Z,985.54
2023-05-21T01:38:47.909Z,985.54
2023-05-21T01:39:47.915Z,985.52
2023-05-21T01:40:47.901Z,985.52
2023-05-21T01:41:47.876Z,985.50
2023-05-21T01:42:47.875Z,985.47
2023-05-21T01:43:47.850Z,985.48
2023-05-21T01:44:47.845Z,985.47
2023-05-21T01:45:47.832Z,985.48
2023-05-21T01:46:47.413Z,985.48
2023-05-21T01:47:47.861Z,985.48
2023-05-21T01:48:47.780Z,985.45
2023-05-21T01:49:47.786Z,985.47
2023-05-21T01:50:47.767Z,985.47
2023-05-21T01:51:47.731Z,985.47
2023-05-21T01:52:47.739Z,985.47
2023-05-21T01:53:47.711Z,985.47
2023-05-21T01:54:47.744Z,985.48
2023-05-21T01:55:47.684Z,985.48
2023-05-21T01:56:47.672Z,985.48
2023-05-21T01:57:47.661Z,985.47
2023-05-21T01:58:47.626Z,985.48
2023-05-21T01:59:47.644Z,985.47
2023-05-21T02:00:47.610Z,985.47
2023-05-21T02:01:47.627Z,985.47
2023-05-21T02:02:47.699Z,985.43
2023-05-21T02:03:47.680Z,985.45
2023-05-21T02:04:47.575Z,985.45
2023-05-21T02:05:47.563Z,985.47
2023-05-21T02:06:47.025Z,985.43
2023-05-21T02:07:47.525Z,985.45
2023-05-21T02:08:47.007Z,985.41
2023-05-21T02:09:47.489Z,985.43
2023-05-21T02:10:47.485Z,985.43
2023-05-21T02:11:47.454Z,985.43
2023-05-21T02:12:47.480Z,985.41
2023-05-21T02:13:47.452Z,985.41
2023-05-21T02:14:47.422Z,985.41
2023-05-21T02:15:47.400Z,985.41
2023-05-21T02:16:47.436Z,985.43
2023-05-21T02:17:47.410Z,985.39
2023-05-21T02:18:47.416Z,985.39
2023-05-21T02:19:47.371Z,985.39
2023-05-21T02:20:47.333Z,985.37
2023-05-21T02:21:47.333Z,985.37
2023-05-21T02:22:47.345Z,985.37
2023-05-21T02:23:47.308Z,985.39
2023-05-21T02:24:47.282Z,985.37
2023-05-21T02:25:47.292Z,985.39
2023-05-21T02:26:47.256Z,985.39
2023-05-21T02:27:47.260Z,985.37
2023-05-21T02:28:47.232Z,985.39
2023-05-21T02:29:47.287Z,985.41
2023-05-21T02:30:47.190Z,985.39
2023-05-21T02:31:47.201Z,985.35
2023-05-21T02:32:47.171Z,985.39
2023-05-21T02:33:47.172Z,985.39
2023-05-21T02:34:47.160Z,985.35
2023-05-21T02:35:47.128Z,985.37
2023-05-21T02:36:47.140Z,985.37
2023-05-21T02:37:47.163Z,985.39
2023-05-21T02:38:47.081Z,985.39
2023-05-21T02:39:47.079Z,985.41
2023-05-21T02:40:47.066Z,985.41
2023-05-21T02:41:47.057Z,985.43
2023-05-21T02:42:47.052Z,985.41
2023-05-21T02:43:47.038Z,985.45
2023-05-21T02:44:47.017Z,985.43
2023-05-21T02:45:47.041Z,985.43
2023-05-21T02:46:46.997Z,985.47
2023-05-21T02:47:47.023Z,985.47
2023-05-21T02:48:46.962Z,985.45
2023-05-21T02:49:46.943Z,985.47
2023-05-21T02:50:46.922Z,985.48
2023-05-21T02:51:46.923Z,985.45
2023-05-21T02:52:46.908Z,985.45
2023-05-21T02:53:46.897Z,985.48
2023-05-21T02:54:46.873Z,985.45
2023-05-21T02:55:46.860Z,985.45
2023-05-21T02:56:46.864Z,985.45
2023-05-21T02:57:46.841Z,985.45
2023-05-21T02:58:46.815Z,985.45
2023-05-21T02:59:46.855Z,985.45
2023-05-21T03:00:46.793Z,985.45
2023-05-21T03:01:46.835Z,985.43
2023-05-21T03:02:46.808Z,985.41
2023-05-21T03:03:46.789Z,985.43
2023-05-21T03:04:46.794Z,985.43
2023-05-21T03:05:46.731Z,985.41
2023-05-21T03:06:46.706Z,985.43
2023-05-21T03:07:46.686Z,985.41
2023-05-21T03:08:46.681Z,985.43
2023-05-21T03:09:46.685Z,985.37
2023-05-21T03:10:46.660Z,985.39
2023-05-21T03:11:46.643Z,985.37
2023-05-21T03:12:46.618Z,985.37
2023-05-21T03:13:46.624Z,985.39
2023-05-21T03:14:46.653Z,985.37
2023-05-21T03:15:46.596Z,985.37
2023-05-21T03:16:46.589Z,985.35
2023-05-21T03:17:46.588Z,985.33
2023-05-21T03:18:46.548Z,985.33
2023-05-21T03:19:46.536Z,985.29
2023-05-21T03:20:46.524Z,985.29
2023-05-21T03:21:46.504Z,985.27
2023-05-21T03:22:46.512Z,985.29
2023-05-21T03:23:46.481Z,985.29
2023-05-21T03:24:46.479Z,985.29
2023-05-21T03:25:46.436Z,985.29
2023-05-21T03:26:46.424Z,985.27
2023-05-21T03:27:46.408Z,985.29
2023-05-21T03:28:46.417Z,985.27
2023-05-21T03:29:46.397Z,985.27
2023-05-21T03:30:46.528Z,985.25
2023-05-21T03:31:46.418Z,985.25
2023-05-21T03:32:46.414Z,985.27
2023-05-21T03:33:46.338Z,985.25
2023-05-21T03:34:46.327Z,985.27
2023-05-21T03:35:46.304Z,985.25
2023-05-21T03:36:46.282Z,985.25
2023-05-21T03:37:46.303Z,985.25
2023-05-21T03:38:46.255Z,985.25
2023-05-21T03:39:46.272Z,985.25
2023-05-21T03:40:46.238Z,985.25
2023-05-21T03:41:46.226Z,985.23
2023-05-21T03:42:46.218Z,985.25
2023-05-21T03:43:46.206Z,985.25
2023-05-21T03:44:46.235Z,985.25
2023-05-21T03:45:46.230Z,985.23
2023-05-21T03:46:46.153Z,985.23
2023-05-21T03:47:46.209Z,985.23
2023-05-21T03:48:46.172Z,985.25
2023-05-21T03:49:46.126Z,985.25
2023-05-21T03:50:46.089Z,985.25
2023-05-21T03:51:46.085Z,985.25
2023-05-21T03:52:46.106Z,985.25
2023-05-21T03:53:46.064Z,985.25
2023-05-21T03:54:46.046Z,985.25
2023-05-21T03:55:46.038Z,985.25
2023-05-21T03:56:46.027Z,985.25
2023-05-21T03:57:46.025Z,985.23
2023-05-21T03:58:46.002Z,985.27
2023-05-21T03:59:45.989Z,985.25
2023-05-21T04:00:45.973Z,985.27
2023-05-21T04:01:45.969Z,985.27
2023-05-21T04:02:46.015Z,985.29
2023-05-21T04:03:46.019Z,985.29
2023-05-21T04:04:46.005Z,985.29
2023-05-21T04:05:45.912Z,985.31
2023-05-21T04:06:45.901Z,985.33
2023-05-21T04:07:45.878Z,985.35
2023-05-21T04:08:45.860Z,985.35
2023-05-21T04:09:45.826Z,985.35
2023-05-21T04:10:45.852Z,985.35
2023-05-21T04:11:45.817Z,985.33
2023-05-21T04:12:45.806Z,985.31
2023-05-21T04:13:45.801Z,985.31
2023-05-21T04:14:45.770Z,985.33
2023-05-21T04:15:45.771Z,985.35
2023-05-21T04:16:45.729Z,985.33
2023-05-21T04:17:45.780Z,985.33
2023-05-21T04:18:45.828Z,985.33
2023-05-21T04:19:45.697Z,985.35
2023-05-21T04:20:45.699Z,985.39
2023-05-21T04:21:45.684Z,985.39
2023-05-21T04:22:45.669Z,985.37
2023-05-21T04:23:45.648Z,985.37
2023-05-21T04:24:45.632Z,985.37
2023-05-21T04:25:45.628Z,985.37
2023-05-21T04:26:45.604Z,985.37
2023-05-21T04:27:45.589Z,985.41
2023-05-21T04:28:45.590Z,985.39
2023-05-21T04:29:45.067Z,985.39
2023-05-21T04:30:45.541Z,985.39
2023-05-21T04:31:45.577Z,985.37
2023-05-21T04:32:45.532Z,985.39
2023-05-21T04:33:45.503Z,985.39
2023-05-21T04:34:45.503Z,985.37
2023-05-21T04:35:45.507Z,985.41
2023-05-21T04:36:45.475Z,985.39
2023-05-21T04:37:45.462Z,985.39
2023-05-21T04:38:45.432Z,985.37
2023-05-21T04:39:45.421Z,985.41
2023-05-21T04:40:45.426Z,985.41
2023-05-21T04:41:45.401Z,985.43
2023-05-21T04:42:45.380Z,985.41
2023-05-21T04:43:45.370Z,985.39
2023-05-21T04:44:45.379Z,985.41
2023-05-21T04:45:45.362Z,985.43
2023-05-21T04:46:45.381Z,985.43
2023-05-21T04:47:45.366Z,985.43
2023-05-21T04:48:45.305Z,985.43
2023-05-21T04:49:45.281Z,985.43
2023-05-21T04:50:45.300Z,985.45
2023-05-21T04:51:45.281Z,985.48
2023-05-21T04:52:45.249Z,985.47
2023-05-21T04:53:45.251Z,985.47
2023-05-21T04:54:45.265Z,985.48
2023-05-21T04:55:43.501Z,985.50
2023-05-21T04:56:45.211Z,985.47
2023-05-21T04:57:45.196Z,985.48
2023-05-21T04:58:45.174Z,985.48
2023-05-21T04:59:45.194Z,985.47
2023-05-21T05:00:45.689Z,985.48
2023-05-21T05:01:45.125Z,985.48
2023-05-21T05:02:45.207Z,985.47
2023-05-21T05:03:45.141Z,985.47
2023-05-21T05:04:45.103Z,985.47
2023-05-21T05:05:45.066Z,985.45
2023-05-21T05:06:45.086Z,985.43
2023-05-21T05:07:45.045Z,985.43
2023-05-21T05:08:45.027Z,985.43
2023-05-21T05:09:45.039Z,985.41
2023-05-21T05:10:45.014Z,985.43
2023-05-21T05:11:44.995Z,985.43
2023-05-21T05:12:45.000Z,985.43
2023-05-21T05:13:44.989Z,985.41
2023-05-21T05:14:44.960Z,985.43
2023-05-21T05:15:45.535Z,985.43
2023-05-21T05:16:44.975Z,985.41
2023-05-21T05:17:44.957Z,985.47
2023-05-21T05:18:44.956Z,985.45
2023-05-21T05:19:44.879Z,985.43
2023-05-21T05:20:44.881Z,985.45
2023-05-21T05:21:44.906Z,985.47
2023-05-21T05:22:44.841Z,985.43
2023-05-21T05:23:44.850Z,985.47
2023-05-21T05:24:44.816Z,985.47
2023-05-21T05:25:44.799Z,985.47
2023-05-21T05:26:44.783Z,985.47
2023-05-21T05:27:44.786Z,985.45
2023-05-21T05:28:44.772Z,985.45
2023-05-21T05:29:44.753Z,985.47
2023-05-21T05:30:44.776Z,985.45
2023-05-21T05:31:44.723Z,985.43
2023-05-21T05:32:44.717Z,985.45
2023-05-21T05:33:44.689Z,985.43
2023-05-21T05:34:44.692Z,985.41
2023-05-21T05:35:44.649Z,985.39
2023-05-21T05:36:44.650Z,985.39
2023-05-21T05:37:44.655Z,985.39
2023-05-21T05:38:44.638Z,985.41
2023-05-21T05:39:44.600Z,985.39
2023-05-21T05:40:44.592Z,985.37
2023-05-21T05:41:44.565Z,985.37
2023-05-21T05:42:44.585Z,985.37
2023-05-21T05:43:44.550Z,985.37
2023-05-21T05:44:44.535Z,985.37
2023-05-21T05:45:44.510Z,985.39
2023-05-21T05:46:44.076Z,985.39
2023-05-21T05:47:44.519Z,985.41
2023-05-21T05:48:44.466Z,985.45
2023-05-21T05:49:44.461Z,985.45
2023-05-21T05:50:44.443Z,985.48
2023-05-21T05:51:44.447Z,985.50
2023-05-21T05:52:43.958Z,985.50
2023-05-21T05:53:43.003Z,985.52
2023-05-21T05:54:44.405Z,985.52
2023-05-21T05:55:44.381Z,985.52
2023-05-21T05:56:44.387Z,985.54
2023-05-21T05:57:45.199Z,985.56
2023-05-21T05:58:43.182Z,985.56
2023-05-21T05:59:42.833Z,985.56
2023-05-21T06:00:44.341Z,985.54
2023-05-21T06:01:43.084Z,985.56
2023-05-21T06:02:44.356Z,985.54
2023-05-21T06:03:44.345Z,985.52
2023-05-21T06:04:44.281Z,985.52
2023-05-21T06:05:44.313Z,985.52
2023-05-21T06:06:44.233Z,985.52
2023-05-21T06:07:44.239Z,985.52
2023-05-21T06:08:44.193Z,985.50
2023-05-21T06:09:44.185Z,985.48
2023-05-21T06:10:44.188Z,985.50
2023-05-21T06:11:44.163Z,985.50
2023-05-21T06:12:44.166Z,985.52
2023-05-21T06:13:44.150Z,985.54
2023-05-21T06:14:45.231Z,985.52
2023-05-21T06:15:44.146Z,985.54
2023-05-21T06:16:44.098Z,985.56
2023-05-21T06:17:44.096Z,985.58
2023-05-21T06:18:44.155Z,985.58
2023-05-21T06:19:44.059Z,985.58
2023-05-21T06:20:44.078Z,985.60
2023-05-21T06:21:44.058Z,985.60
2023-05-21T06:22:44.032Z,985.64
2023-05-21T06:23:43.988Z,985.64
2023-05-21T06:24:43.997Z,985.66
2023-05-21T06:25:43.980Z,985.68
2023-05-21T06:26:43.970Z,985.68
2023-05-21T06:27:43.947Z,985.68
2023-05-21T06:28:43.935Z,985.66
2023-05-21T06:29:43.919Z,985.68
2023-05-21T06:30:43.916Z,985.64
2023-05-21T06:31:43.881Z,985.64
2023-05-21T06:32:43.937Z,985.64
2023-05-21T06:33:43.986Z,985.62
2023-05-21T06:34:43.870Z,985.62
2023-05-21T06:35:43.876Z,985.64
2023-05-21T06:36:43.826Z,985.60
2023-05-21T06:37:43.804Z,985.60
2023-05-21T06:38:43.809Z,985.60
2023-05-21T06:39:43.782Z,985.58
2023-05-21T06:40:43.767Z,985.58
2023-05-21T06:41:43.761Z,985.60
2023-05-21T06:42:43.744Z,985.58
2023-05-21T06:43:43.735Z,985.58
2023-05-21T06:44:43.710Z,985.58
2023-05-21T06:45:43.719Z,985.56
2023-05-21T06:46:43.677Z,985.56
2023-05-21T06:47:43.771Z,985.54
2023-05-21T06:48:43.653Z,985.54
2023-05-21T06:49:43.640Z,985.54
2023-05-21T06:50:43.625Z,985.56
2023-05-21T06:51:43.637Z,985.54
2023-05-21T06:52:43.611Z,985.56
2023-05-21T06:53:43.583Z,985.54
2023-05-21T06:54:43.584Z,985.54
2023-05-21T06:55:41.594Z,985.54
2023-05-21T06:56:43.538Z,985.54
2023-05-21T06:57:43.532Z,985.54
2023-05-21T06:58:43.499Z,985.54
2023-05-21T06:59:43.504Z,985.50
2023-05-21T07:00:43.494Z,985.52
2023-05-21T07:01:43.528Z,985.52
2023-05-21T07:02:43.535Z,985.52
2023-05-21T07:03:43.519Z,985.54
2023-05-21T07:04:43.457Z,985.54
2023-05-21T07:05:43.404Z,985.54
2023-05-21T07:06:43.404Z,985.54
2023-05-21T07:07:43.409Z,985.54
2023-05-21T07:08:43.377Z,985.54
2023-05-21T07:09:43.363Z,985.60
2023-05-21T07:10:43.342Z,985.60
2023-05-21T07:11:43.344Z,985.60
2023-05-21T07:12:43.328Z,985.62
2023-05-21T07:13:43.355Z,985.60
2023-05-21T07:14:43.297Z,985.62
2023-05-21T07:15:43.302Z,985.62
2023-05-21T07:16:43.361Z,985.62
2023-05-21T07:17:43.285Z,985.64
2023-05-21T07:18:43.240Z,985.64
2023-05-21T07:19:43.237Z,985.66
2023-05-21T07:20:43.212Z,985.62
2023-05-21T07:21:43.201Z,985.66
2023-05-21T07:22:43.173Z,985.64
2023-05-21T07:23:43.183Z,985.64
2023-05-21T07:24:43.139Z,985.64
2023-05-21T07:25:43.144Z,985.68
2023-05-21T07:26:43.140Z,985.72
2023-05-21T07:27:43.138Z,985.70
2023-05-21T07:28:43.102Z,985.72
2023-05-21T07:29:43.100Z,985.68
2023-05-21T07:30:43.130Z,985.66
2023-05-21T07:31:43.076Z,985.66
2023-05-21T07:32:43.078Z,985.66
2023-05-21T07:33:43.060Z,985.68
2023-05-21T07:34:43.027Z,985.64
2023-05-21T07:35:43.025Z,985.66
2023-05-21T07:36:42.984Z,985.62
2023-05-21T07:37:43.038Z,985.60
2023-05-21T07:38:42.971Z,985.62
2023-05-21T07:39:42.962Z,985.60
2023-05-21T07:40:42.969Z,985.58
2023-05-21T07:41:42.925Z,985.62
2023-05-21T07:42:42.899Z,985.58
2023-05-21T07:43:42.899Z,985.58
2023-05-21T07:44:42.896Z,985.56
2023-05-21T07:45:42.885Z,985.54
2023-05-21T07:46:42.944Z,985.54
2023-05-21T07:47:42.860Z,985.56
2023-05-21T07:48:42.825Z,985.52
2023-05-21T07:49:42.830Z,985.48
2023-05-21T07:50:42.806Z,985.50
2023-05-21T07:51:42.792Z,985.52
2023-05-21T07:52:42.803Z,985.50
2023-05-21T07:53:42.758Z,985.52
2023-05-21T07:54:42.759Z,985.48
2023-05-21T07:55:42.728Z,985.50
2023-05-21T07:56:42.709Z,985.48
2023-05-21T07:57:42.730Z,985.47
2023-05-21T07:58:42.701Z,985.48
2023-05-21T07:59:42.703Z,985.50
2023-05-21T08:00:42.678Z,985.48
2023-05-21T08:01:42.657Z,985.50
2023-05-21T08:02:42.716Z,985.45
2023-05-21T08:03:42.761Z,985.45
2023-05-21T08:04:42.643Z,985.43
2023-05-21T08:05:42.589Z,985.43
2023-05-21T08:06:42.112Z,985.43
2023-05-21T08:07:42.559Z,985.43
2023-05-21T08:08:42.559Z,985.47
2023-05-21T08:09:42.546Z,985.47
2023-05-21T08:10:42.540Z,985.48
2023-05-21T08:11:42.532Z,985.47
2023-05-21T08:12:42.522Z,985.45
2023-05-21T08:13:42.507Z,985.48
2023-05-21T08:14:42.478Z,985.47
2023-05-21T08:15:40.755Z,985.50
2023-05-21T08:16:42.603Z,985.48
2023-05-21T08:17:42.553Z,985.50
2023-05-21T08:18:42.469Z,985.45
2023-05-21T08:19:42.436Z,985.50
2023-05-21T08:20:42.483Z,985.52
2023-05-21T08:21:42.412Z,985.47
2023-05-21T08:22:40.561Z,985.48
2023-05-21T08:23:42.368Z,985.47
2023-05-21T08:24:42.380Z,985.45
2023-05-21T08:25:42.382Z,985.43
2023-05-21T08:26:45.489Z,985.41
2023-05-21T08:27:41.645Z,985.41
2023-05-21T08:28:42.386Z,985.41
2023-05-21T08:29:42.324Z,985.39
2023-05-21T08:30:42.307Z,985.39
2023-05-21T08:31:42.337Z,985.39
2023-05-21T08:32:42.312Z,985.37
2023-05-21T08:33:42.254Z,985.35
2023-05-21T08:34:42.230Z,985.37
2023-05-21T08:35:42.209Z,985.37
2023-05-21T08:36:41.833Z,985.37
2023-05-21T08:37:42.207Z,985.35
2023-05-21T08:38:42.169Z,985.33
2023-05-21T08:39:42.152Z,985.37
2023-05-21T08:40:42.129Z,985.37
2023-05-21T08:41:42.146Z,985.35
2023-05-21T08:42:42.119Z,985.39
2023-05-21T08:43:42.152Z,985.35
2023-05-21T08:44:42.087Z,985.35
2023-05-21T08:45:42.090Z,985.35
2023-05-21T08:46:42.056Z,985.35
2023-05-21T08:47:42.071Z,985.35
2023-05-21T08:48:42.018Z,985.33
2023-05-21T08:49:42.011Z,985.35
2023-05-21T08:50:42.097Z,985.33
2023-05-21T08:51:42.030Z,985.33
2023-05-21T08:52:41.982Z,985.33
2023-05-21T08:53:41.961Z,985.33
2023-05-21T08:54:41.968Z,985.35
2023-05-21T08:55:41.991Z,985.35
2023-05-21T08:56:41.929Z,985.35
2023-05-21T08:57:41.924Z,985.35
2023-05-21T08:58:41.905Z,985.33
2023-05-21T08:59:41.465Z,985.37
2023-05-21T09:00:41.898Z,985.33
2023-05-21T09:01:40.956Z,985.35
2023-05-21T09:02:41.893Z,985.33
2023-05-21T09:03:41.906Z,985.33
2023-05-21T09:04:41.912Z,985.33
2023-05-21T09:05:41.803Z,985.31
2023-05-21T09:06:41.827Z,985.29
2023-05-21T09:07:41.787Z,985.35
2023-05-21T09:08:40.066Z,985.33
2023-05-21T09:09:41.992Z,985.35
2023-05-21T09:10:41.744Z,985.33
2023-05-21T09:11:41.735Z,985.35
2023-05-21T09:12:41.821Z,985.35
2023-05-21T09:13:41.704Z,985.31
2023-05-21T09:14:41.682Z,985.33
2023-05-21T09:15:41.669Z,985.35
2023-05-21T09:16:41.691Z,985.31
2023-05-21T09:17:41.690Z,985.33
2023-05-21T09:18:39.701Z,985.31
2023-05-21T09:19:41.500Z,985.29
2023-05-21T09:20:41.609Z,985.29
2023-05-21T09:21:41.582Z,985.27
2023-05-21T09:22:41.603Z,985.29
2023-05-21T09:23:41.588Z,985.27
2023-05-21T09:24:41.593Z,985.25
2023-05-21T09:25:41.566Z,985.25
2023-05-21T09:26:41.641Z,985.27
2023-05-21T09:27:41.577Z,985.25
2023-05-21T09:28:41.505Z,985.29
2023-05-21T09:29:41.581Z,985.29
2023-05-21T09:30:41.733Z,985.31
2023-05-21T09:31:41.499Z,985.27
2023-05-21T09:32:41.493Z,985.31
2023-05-21T09:33:41.465Z,985.29
2023-05-21T09:34:41.420Z,985.29
2023-05-21T09:35:41.393Z,985.27
2023-05-21T09:36:41.425Z,985.27
2023-05-21T09:37:41.400Z,985.25
2023-05-21T09:38:41.378Z,985.25
2023-05-21T09:39:41.350Z,985.27
2023-05-21T09:40:41.351Z,985.25
2023-05-21T09:41:41.699Z,985.25
2023-05-21T09:42:40.652Z,985.23
2023-05-21T09:43:41.326Z,985.23
2023-05-21T09:44:41.266Z,985.23
2023-05-21T09:45:41.460Z,985.23
2023-05-21T09:46:41.794Z,985.23
2023-05-21T09:47:41.267Z,985.23
2023-05-21T09:48:41.231Z,985.21
2023-05-21T09:49:41.235Z,985.19
2023-05-21T09:50:41.390Z,985.17
2023-05-21T09:51:41.185Z,985.19
2023-05-21T09:52:42.292Z,985.19
2023-05-21T09:53:41.169Z,985.19
2023-05-21T09:54:41.171Z,985.15
2023-05-21T09:55:41.191Z,985.15
2023-05-21T09:56:41.134Z,985.13
2023-05-21T09:57:41.154Z,985.13
2023-05-21T09:58:41.106Z,985.13
2023-05-21T09:59:41.129Z,985.11
2023-05-21T10:00:41.113Z,985.07
2023-05-21T10:01:41.206Z,985.05
2023-05-21T10:02:41.109Z,985.07
2023-05-21T10:03:41.095Z,985.07
2023-05-21T10:04:41.091Z,985.09
2023-05-21T10:05:41.017Z,985.09
2023-05-21T10:06:41.019Z,985.07
2023-05-21T10:07:40.989Z,985.07
2023-05-21T10:08:40.999Z,985.07
2023-05-21T10:09:40.961Z,985.05
2023-05-21T10:10:40.457Z,985.09
2023-05-21T10:11:40.951Z,985.09
2023-05-21T10:12:40.917Z,985.07
2023-05-21T10:13:40.914Z,985.01
2023-05-21T10:14:40.893Z,985.03
2023-05-21T10:15:40.897Z,985.07
2023-05-21T10:16:40.962Z,985.07
2023-05-21T10:17:40.898Z,985.09
2023-05-21T10:18:40.865Z,985.05
2023-05-21T10:19:40.855Z,985.03
2023-05-21T10:20:40.837Z,985.01
2023-05-21T10:21:40.818Z,985.03
2023-05-21T10:22:40.797Z,985.03
2023-05-21T10:23:40.791Z,985.01
2023-05-21T10:24:38.942Z,985.01
2023-05-21T10:25:40.779Z,985.01
2023-05-21T10:26:40.836Z,985.01
2023-05-21T10:27:40.730Z,985.01
2023-05-21T10:28:39.062Z,985.00
2023-05-21T10:29:40.762Z,985.00
2023-05-21T10:30:39.526Z,985.00
2023-05-21T10:31:40.785Z,985.00
2023-05-21T10:32:40.860Z,985.00
2023-05-21T10:33:40.652Z,984.98
2023-05-21T10:34:40.661Z,984.98
2023-05-21T10:35:40.647Z,985.00
2023-05-21T10:36:40.609Z,985.00
2023-05-21T10:37:40.609Z,984.96
2023-05-21T10:38:40.586Z,984.96
2023-05-21T10:39:40.632Z,984.94
2023-05-21T10:40:40.583Z,984.85
2023-05-21T10:41:40.552Z,984.81
2023-05-21T10:42:40.571Z,984.83
2023-05-21T10:43:40.555Z,984.83
2023-05-21T10:44:40.528Z,984.83
2023-05-21T10:45:40.570Z,984.81
2023-05-21T10:46:40.491Z,984.79
2023-05-21T10:47:40.537Z,984.81
2023-05-21T10:48:40.498Z,984.81
2023-05-21T10:49:40.477Z,984.78
2023-05-21T10:50:40.489Z,984.76
2023-05-21T10:51:40.436Z,984.79
2023-05-21T10:52:40.446Z,984.78
2023-05-21T10:53:40.417Z,984.76
2023-05-21T10:54:40.398Z,984.78
2023-05-21T10:55:40.411Z,984.78
2023-05-21T10:56:40.378Z,984.78
2023-05-21T10:57:40.378Z,984.76
2023-05-21T10:58:40.368Z,984.79
2023-05-21T10:59:40.353Z,984.78
2023-05-21T11:00:40.341Z,984.74
2023-05-21T11:01:40.421Z,984.74
2023-05-21T11:02:40.408Z,984.76
2023-05-21T11:03:39.473Z,984.76
2023-05-21T11:04:40.310Z,984.79
2023-05-21T11:05:40.462Z,984.78
2023-05-21T11:06:40.279Z,984.76
2023-05-21T11:07:40.263Z,984.74
2023-05-21T11:08:40.242Z,984.78
2023-05-21T11:09:40.220Z,984.76
2023-05-21T11:10:40.296Z,984.78
2023-05-21T11:11:40.182Z,984.78
2023-05-21T11:12:40.180Z,984.78
2023-05-21T11:13:40.165Z,984.78
2023-05-21T11:14:40.329Z,984.78
2023-05-21T11:15:39.638Z,984.76
2023-05-21T11:16:40.202Z,984.76
2023-05-21T11:17:40.165Z,984.78
2023-05-21T11:18:40.090Z,984.74
2023-05-21T11:19:40.195Z,984.76
2023-05-21T11:20:40.067Z,984.79
2023-05-21T11:21:40.075Z,984.79
2023-05-21T11:22:40.061Z,984.81
2023-05-21T11:23:40.039Z,984.81
2023-05-21T11:24:40.017Z,984.81
2023-05-21T11:25:39.998Z,984.79
2023-05-21T11:26:39.999Z,984.79
2023-05-21T11:27:40.055Z,984.76
2023-05-21T11:28:39.964Z,984.74
2023-05-21T11:29:39.963Z,984.76
2023-05-21T11:30:41.115Z,984.76
2023-05-21T11:31:40.454Z,984.74
2023-05-21T11:32:40.032Z,984.76
2023-05-21T11:33:39.899Z,984.74
2023-05-21T11:34:39.900Z,984.76
2023-05-21T11:35:39.883Z,984.74
2023-05-21T11:36:39.851Z,984.72
2023-05-21T11:37:39.839Z,984.72
2023-05-21T11:38:39.843Z,984.76
2023-05-21T11:39:40.101Z,984.78
2023-05-21T11:40:38.612Z,984.78
2023-05-21T11:41:39.805Z,984.74
2023-05-21T11:42:39.787Z,984.74
2023-05-21T11:43:39.762Z,984.70
2023-05-21T11:44:39.752Z,984.72
2023-05-21T11:45:39.744Z,984.74
2023-05-21T11:46:39.775Z,984.74
2023-05-21T11:47:39.775Z,984.74
2023-05-21T11:48:39.704Z,984.72
2023-05-21T11:49:39.705Z,984.72
2023-05-21T11:50:39.892Z,984.72
2023-05-21T11:51:39.667Z,984.74
2023-05-21T11:52:39.642Z,984.74
2023-05-21T11:53:39.632Z,984.76
2023-05-21T11:54:39.641Z,984.78
2023-05-21T11:55:39.641Z,984.78
2023-05-21T11:56:39.600Z,984.78
2023-05-21T11:57:39.566Z,984.78
2023-05-21T11:58:39.563Z,984.74
2023-05-21T11:59:39.566Z,984.74
2023-05-21T12:00:39.531Z,984.72
2023-05-21T12:01:39.559Z,984.74
2023-05-21T12:02:39.775Z,984.76
2023-05-21T12:03:39.718Z,984.78
2023-05-21T12:04:39.498Z,984.76
2023-05-21T12:05:37.663Z,984.74
2023-05-21T12:06:39.461Z,984.74
2023-05-21T12:07:39.459Z,984.72
2023-05-21T12:08:39.440Z,984.72
2023-05-21T12:09:39.463Z,984.72
2023-05-21T12:10:39.415Z,984.68
2023-05-21T12:11:39.395Z,984.72
2023-05-21T12:12:53.357Z,984.74
2023-05-21T12:13:40.386Z,984.72
2023-05-21T12:14:39.353Z,984.72
2023-05-21T12:15:39.343Z,984.72
2023-05-21T12:16:39.397Z,984.72
2023-05-21T12:17:39.373Z,984.72
2023-05-21T12:18:39.324Z,984.70
2023-05-21T12:19:39.285Z,984.72
2023-05-21T12:20:39.305Z,984.72
2023-05-21T12:21:39.266Z,984.72
2023-05-21T12:22:39.278Z,984.74
2023-05-21T12:23:39.259Z,984.76
2023-05-21T12:24:39.226Z,984.76
2023-05-21T12:25:39.231Z,984.72
2023-05-21T12:26:39.200Z,984.72
2023-05-21T12:27:38.812Z,984.72
2023-05-21T12:28:39.190Z,984.74